Terminal Aerodrome Forecast
Issued by NWS Blacksburg, VA

Current Version | Previous Version | Graphics & Text | Print | Product List | Glossary On
Versions: 1 2 3 4 5 6 7 8 9 10 11 12 13 14 15 16 17 18 19 20 21 22 23 24 25
000
FTUS41 KRNK 191722
TAFBLF
TAF
KBLF 191722Z 1918/2018 24010G18KT P6SM SCT250
     FM200500 25012G22KT P6SM BKN050
     FM200900 26010G20KT P6SM BKN025 OVC035
     FM201400 27013G23KT P6SM BKN040=

USA.gov is the U.S. government's official web portal to all federal, state and local government web resources and services.